createdAt,value
2022-10-19T00:00:02.903Z,100214.19
2022-10-19T00:03:08.090Z,100213.09
2022-10-19T00:06:16.247Z,100211.19
2022-10-19T00:09:20.922Z,100206.78
2022-10-19T00:12:25.600Z,100205.16
2022-10-19T00:15:28.904Z,100195.63
2022-10-19T00:18:32.148Z,100193.66
2022-10-19T00:21:35.895Z,100181.56
2022-10-19T00:24:39.109Z,100170.53
2022-10-19T00:27:43.697Z,100175.63
2022-10-19T00:30:46.959Z,100162.50
2022-10-19T00:33:52.381Z,100165.81
2022-10-19T00:36:55.694Z,100161.28
2022-10-19T00:39:59.060Z,100161.19
2022-10-19T00:43:03.667Z,100160.75
2022-10-19T00:46:06.987Z,100153.16
2022-10-19T00:49:14.281Z,100139.81
2022-10-19T00:52:20.859Z,100143.25
2022-10-19T00:55:24.151Z,100133.44
2022-10-19T00:58:29.183Z,100128.25
2022-10-19T01:01:33.164Z,100122.41
2022-10-19T01:04:38.998Z,100118.44
2022-10-19T01:07:42.575Z,100117.25
2022-10-19T01:10:53.682Z,100119.78
2022-10-19T01:14:08.631Z,100115.34
2022-10-19T01:17:24.491Z,100105.88
2022-10-19T01:21:03.766Z,100112.53
2022-10-19T01:24:29.028Z,100100.44
2022-10-19T01:28:03.462Z,100092.44
2022-10-19T01:31:20.475Z,100099.84
2022-10-19T01:34:30.676Z,100096.06
2022-10-19T01:37:39.691Z,100102.47
2022-10-19T01:40:50.533Z,100086.03
2022-10-19T01:44:00.745Z,100079.84
2022-10-19T01:47:10.137Z,100084.16
2022-10-19T01:50:19.331Z,100081.53
2022-10-19T01:53:24.511Z,100088.16
2022-10-19T01:56:30.245Z,100088.72
2022-10-19T01:59:35.296Z,100077.69
2022-10-19T02:02:46.819Z,100076.03
2022-10-19T02:05:52.453Z,100075.78
2022-10-19T02:08:55.925Z,100067.81
2022-10-19T02:12:03.776Z,100063.13
2022-10-19T02:15:12.547Z,100065.56
2022-10-19T02:18:21.153Z,100063.94
2022-10-19T02:21:25.094Z,100060.91
2022-10-19T02:24:28.400Z,100052.94
2022-10-19T02:27:31.972Z,100053.91
2022-10-19T02:30:35.333Z,100055.69
2022-10-19T02:33:40.376Z,100047.16
2022-10-19T02:36:43.648Z,100054.88
2022-10-19T02:39:47.013Z,100041.41
2022-10-19T02:42:55.525Z,100045.94
2022-10-19T02:46:03.592Z,100041.25
2022-10-19T02:49:10.664Z,100047.44
2022-10-19T02:52:15.545Z,100043.81
2022-10-19T02:55:18.995Z,100032.59
2022-10-19T02:58:22.272Z,100032.44
2022-10-19T03:01:25.938Z,100028.44
2022-10-19T03:04:30.566Z,100030.50
2022-10-19T03:07:34.033Z,100028.97
2022-10-19T03:10:37.431Z,100022.41
2022-10-19T03:13:42.263Z,100016.50
2022-10-19T03:16:45.588Z,100013.47
2022-10-19T03:19:50.203Z,100009.22
2022-10-19T03:26:01.569Z,100015.53
2022-10-19T03:29:05.295Z,100015.53
2022-10-19T03:32:08.566Z,100012.94
2022-10-19T03:35:13.184Z,100011.00
2022-10-19T03:38:16.409Z,100009.72
2022-10-19T03:41:20.560Z,100012.19
2022-10-19T03:44:23.726Z,100007.09
2022-10-19T03:47:26.981Z,100010.25
2022-10-19T03:50:31.588Z,100003.69
2022-10-19T03:53:34.930Z,99997.47
2022-10-19T03:56:38.211Z,100002.31
2022-10-19T03:59:41.538Z,100001.94
2022-10-19T04:02:44.769Z,99997.88
2022-10-19T04:05:49.401Z,99996.28
2022-10-19T04:08:52.697Z,99993.66
2022-10-19T04:11:55.886Z,99990.25
2022-10-19T04:14:59.060Z,99994.91
2022-10-19T04:18:02.467Z,99993.75
2022-10-19T04:21:07.579Z,99988.91
2022-10-19T04:24:12.899Z,99990.31
2022-10-19T04:27:16.060Z,99982.63
2022-10-19T04:30:19.377Z,99981.66
2022-10-19T04:33:22.656Z,99981.53
2022-10-19T04:36:27.427Z,99975.09
2022-10-19T04:39:30.642Z,99975.03
2022-10-19T04:42:33.827Z,99972.41
2022-10-19T04:45:37.298Z,99963.94
2022-10-19T04:48:41.729Z,99962.16
2022-10-19T04:51:46.339Z,99958.56
2022-10-19T04:54:49.597Z,99966.41
2022-10-19T04:57:52.854Z,99960.34
2022-10-19T05:00:56.202Z,99955.28
2022-10-19T05:04:00.997Z,99964.06
2022-10-19T05:07:05.918Z,99962.56
2022-10-19T05:10:10.807Z,99959.97
2022-10-19T05:13:14.045Z,99961.72
2022-10-19T05:16:20.882Z,99960.78
2022-10-19T05:19:24.070Z,99956.09
2022-10-19T05:22:28.747Z,99960.94
2022-10-19T05:25:31.996Z,99958.03
2022-10-19T05:28:36.051Z,99962.16
2022-10-19T05:31:39.571Z,99961.59
2022-10-19T05:34:43.044Z,99964.66
2022-10-19T05:37:47.599Z,99964.34
2022-10-19T05:40:53.608Z,99975.63
2022-10-19T05:43:58.807Z,99964.28
2022-10-19T05:47:02.299Z,99975.03
2022-10-19T05:50:06.189Z,99965.47
2022-10-19T05:53:10.814Z,99974.47
2022-10-19T05:56:17.174Z,99972.63
2022-10-19T05:59:24.793Z,99975.53
2022-10-19T06:02:28.037Z,99973.47
2022-10-19T06:05:31.209Z,99970.94
2022-10-19T06:08:36.146Z,99976.91
2022-10-19T06:11:41.915Z,99968.53
2022-10-19T06:17:53.289Z,99965.50
2022-10-19T06:20:56.530Z,99971.56
2022-10-19T06:24:03.500Z,99972.09
2022-10-19T06:27:07.127Z,99969.97
2022-10-19T06:30:11.465Z,99972.53
2022-10-19T06:33:14.641Z,99969.56
2022-10-19T06:36:20.233Z,99971.50
2022-10-19T06:39:24.839Z,99963.31
2022-10-19T06:42:27.995Z,99958.38
2022-10-19T06:45:35.700Z,99952.75
2022-10-19T06:48:39.459Z,99947.44
2022-10-19T06:51:42.922Z,99946.97
2022-10-19T06:54:47.578Z,99942.00
2022-10-19T06:57:50.847Z,99944.72
2022-10-19T07:00:58.359Z,99949.34
2022-10-19T07:04:02.765Z,99949.63
2022-10-19T07:07:06.614Z,99939.06
2022-10-19T07:10:11.587Z,99941.53
2022-10-19T07:13:14.811Z,99945.81
2022-10-19T07:16:21.513Z,99942.53
2022-10-19T07:19:29.927Z,99935.44
2022-10-19T07:22:33.218Z,99940.22
2022-10-19T07:25:38.893Z,99938.75
2022-10-19T07:28:44.207Z,99932.59
2022-10-19T07:31:47.448Z,99923.56
2022-10-19T07:34:50.626Z,99918.81
2022-10-19T07:37:53.857Z,99913.75
2022-10-19T07:41:07.682Z,99906.44
2022-10-19T07:44:14.780Z,99908.56
2022-10-19T07:47:19.431Z,99902.09
2022-10-19T07:50:24.650Z,99896.69
2022-10-19T07:53:27.875Z,99896.59
2022-10-19T07:56:33.254Z,99901.84
2022-10-19T07:59:36.662Z,99888.94
2022-10-19T08:02:59.880Z,99888.50
2022-10-19T08:06:03.663Z,99887.38
2022-10-19T08:09:07.518Z,99883.94
2022-10-19T08:12:15.234Z,99883.50
2022-10-19T08:15:19.235Z,99875.91
2022-10-19T08:18:23.226Z,99874.78
2022-10-19T08:21:28.692Z,99869.94
2022-10-19T08:24:32.584Z,99865.28
2022-10-19T08:27:37.191Z,99864.44
2022-10-19T08:30:43.096Z,99858.16
2022-10-19T08:33:46.568Z,99845.59
2022-10-19T08:36:51.690Z,99847.44
2022-10-19T08:39:55.008Z,99841.88
2022-10-19T08:43:05.859Z,99842.91
2022-10-19T08:46:18.758Z,99842.63
2022-10-19T08:49:26.251Z,99842.31
2022-10-19T08:52:34.632Z,99837.97
2022-10-19T08:55:45.869Z,99830.44
2022-10-19T08:59:04.535Z,99832.50
2022-10-19T09:02:17.607Z,99827.63
2022-10-19T09:05:29.799Z,99839.28
2022-10-19T09:08:35.121Z,99837.13
2022-10-19T09:11:44.498Z,99823.53
2022-10-19T09:14:57.027Z,99817.31
2022-10-19T09:18:00.379Z,99825.47
2022-10-19T09:21:08.539Z,99822.28
2022-10-19T09:24:28.042Z,99817.44
2022-10-19T09:27:36.759Z,99807.06
2022-10-19T09:30:44.055Z,99802.75
2022-10-19T09:33:53.336Z,99796.91
2022-10-19T09:36:59.555Z,99795.31
2022-10-19T09:40:02.921Z,99781.44
2022-10-19T09:43:19.587Z,99790.88
2022-10-19T09:46:37.033Z,99781.16
2022-10-19T09:49:43.627Z,99782.78
2022-10-19T09:52:48.405Z,99778.16
2022-10-19T09:55:59.528Z,99772.44
2022-10-19T09:59:02.741Z,99775.66
2022-10-19T10:02:17.673Z,99765.56
2022-10-19T10:05:21.847Z,99761.81
2022-10-19T10:08:27.819Z,99754.97
2022-10-19T10:11:34.359Z,99754.13
2022-10-19T10:14:39.908Z,99745.91
2022-10-19T10:17:48.415Z,99747.63
2022-10-19T10:21:06.791Z,99743.09
2022-10-19T10:24:18.873Z,99732.66
2022-10-19T10:27:32.586Z,99724.16
2022-10-19T10:30:38.501Z,99714.88
2022-10-19T10:33:45.362Z,99721.19
2022-10-19T10:36:52.740Z,99703.91
2022-10-19T10:40:01.785Z,99703.91
2022-10-19T10:43:10.418Z,99700.00
2022-10-19T10:46:20.657Z,99692.28
2022-10-19T10:49:28.672Z,99681.38
2022-10-19T10:52:32.626Z,99682.16
2022-10-19T10:55:36.210Z,99687.50
2022-10-19T10:58:47.915Z,99673.72
2022-10-19T11:02:00.293Z,99664.22
2022-10-19T11:05:11.887Z,99656.13
2022-10-19T11:08:22.594Z,99657.00
2022-10-19T11:11:29.259Z,99656.41
2022-10-19T11:14:40.204Z,99658.47
2022-10-19T11:17:58.553Z,99663.00
2022-10-19T11:21:10.865Z,99645.63
2022-10-19T11:24:24.093Z,99640.28
2022-10-19T11:27:39.024Z,99636.03
2022-10-19T11:30:56.780Z,99640.72
2022-10-19T11:34:05.585Z,99632.56
2022-10-19T11:37:21.373Z,99625.16
2022-10-19T11:40:31.473Z,99619.53
2022-10-19T11:43:41.082Z,99610.41
2022-10-19T11:46:54.119Z,99604.59
2022-10-19T11:50:11.219Z,99609.00
2022-10-19T11:53:24.790Z,99608.72
2022-10-19T11:56:58.232Z,99595.34
2022-10-19T12:00:14.770Z,99595.69
2022-10-19T12:03:52.416Z,99599.94
2022-10-19T12:07:03.831Z,99589.44
2022-10-19T12:10:19.609Z,99589.69
2022-10-19T12:13:29.884Z,99578.13
2022-10-19T12:16:39.373Z,99576.16
2022-10-19T12:19:47.981Z,99583.31
2022-10-19T12:22:51.857Z,99572.34
2022-10-19T12:25:58.908Z,99566.00
2022-10-19T12:29:06.610Z,99561.63
2022-10-19T12:32:15.292Z,99547.88
2022-10-19T12:35:31.735Z,99544.41
2022-10-19T12:38:49.446Z,99534.59
2022-10-19T12:42:04.602Z,99532.34
2022-10-19T12:45:19.847Z,99538.28
2022-10-19T12:48:25.186Z,99534.53
2022-10-19T12:51:28.507Z,99528.25
2022-10-19T12:54:34.071Z,99523.25
2022-10-19T12:57:43.274Z,99527.78
2022-10-19T13:00:59.451Z,99520.47
2022-10-19T13:04:11.915Z,99504.94
2022-10-19T13:07:19.472Z,99499.59
2022-10-19T13:10:25.765Z,99502.81
2022-10-19T13:14:02.853Z,99498.03
2022-10-19T13:17:06.133Z,99510.00
2022-10-19T13:20:54.588Z,99498.66
2022-10-19T13:24:21.792Z,99499.66
2022-10-19T13:27:37.107Z,99499.31
2022-10-19T13:31:08.165Z,99497.09
2022-10-19T13:34:16.752Z,99496.66
2022-10-19T13:37:20.605Z,99497.16
2022-10-19T13:40:24.960Z,99499.59
2022-10-19T13:43:31.290Z,99496.66
2022-10-19T13:46:53.694Z,99488.63
2022-10-19T13:50:20.307Z,99495.63
2022-10-19T13:53:33.259Z,99489.22
2022-10-19T13:56:57.302Z,99488.63
2022-10-19T14:00:15.258Z,99483.69
2022-10-19T14:03:30.197Z,99473.66
2022-10-19T14:06:39.957Z,99466.13
2022-10-19T14:10:02.835Z,99467.25
2022-10-19T14:13:13.006Z,99467.31
2022-10-19T14:16:20.860Z,99463.44
2022-10-19T14:19:29.693Z,99463.66
2022-10-19T14:22:34.542Z,99464.81
2022-10-19T14:25:38.876Z,99458.56
2022-10-19T14:28:43.702Z,99468.00
2022-10-19T14:31:52.156Z,99464.66
2022-10-19T14:35:06.705Z,99462.44
2022-10-19T14:38:19.915Z,99463.91
2022-10-19T14:44:43.233Z,99455.25
2022-10-19T14:48:01.279Z,99460.22
2022-10-19T14:51:10.714Z,99458.50
2022-10-19T14:54:29.832Z,99458.75
2022-10-19T14:57:36.472Z,99457.66
2022-10-19T15:00:40.278Z,99455.31
2022-10-19T15:03:45.407Z,99447.06
2022-10-19T15:06:50.259Z,99449.22
2022-10-19T15:09:57.729Z,99449.56
2022-10-19T15:13:04.073Z,99445.94
2022-10-19T15:16:07.723Z,99451.09
2022-10-19T15:19:26.259Z,99459.03
2022-10-19T15:22:48.744Z,99455.09
2022-10-19T15:26:00.372Z,99450.72
2022-10-19T15:29:13.015Z,99447.97
2022-10-19T15:32:17.787Z,99458.16
2022-10-19T15:35:25.220Z,99458.88
2022-10-19T15:38:32.399Z,99461.66
2022-10-19T15:41:37.291Z,99461.28
2022-10-19T15:44:43.692Z,99465.53
2022-10-19T15:48:28.357Z,99474.69
2022-10-19T15:51:43.954Z,99468.34
2022-10-19T15:54:48.811Z,99473.94
2022-10-19T15:58:00.245Z,99468.63
2022-10-19T16:01:03.782Z,99479.53
2022-10-19T16:04:08.469Z,99483.03
2022-10-19T16:07:17.520Z,99493.00
2022-10-19T16:10:23.105Z,99497.59
2022-10-19T16:13:26.337Z,99501.22
2022-10-19T16:16:33.116Z,99511.69
2022-10-19T16:19:37.722Z,99519.25
2022-10-19T16:22:41.068Z,99528.44
2022-10-19T16:25:44.364Z,99531.34
2022-10-19T16:28:48.769Z,99528.25
2022-10-19T16:31:52.433Z,99531.53
2022-10-19T16:34:57.150Z,99540.91
2022-10-19T16:38:00.599Z,99553.75
2022-10-19T16:41:04.767Z,99557.00
2022-10-19T16:44:08.010Z,99558.81
2022-10-19T16:47:14.166Z,99568.59
2022-10-19T16:50:19.005Z,99577.16
2022-10-19T16:53:22.259Z,99571.06
2022-10-19T16:56:27.118Z,99572.88
2022-10-19T16:59:30.274Z,99582.03
2022-10-19T17:02:33.946Z,99586.28
2022-10-19T17:05:41.535Z,99588.13
2022-10-19T17:09:23.357Z,99588.09
2022-10-19T17:12:09.048Z,99586.47
2022-10-19T17:18:36.807Z,99583.78
2022-10-19T17:21:42.544Z,99597.78
2022-10-19T17:24:47.365Z,99591.75
2022-10-19T17:27:51.597Z,99590.66
2022-10-19T17:30:55.336Z,99594.81
2022-10-19T17:34:02.093Z,99599.59
2022-10-19T17:37:06.952Z,99593.66
2022-10-19T17:40:11.364Z,99594.06
2022-10-19T17:43:14.684Z,99600.41
2022-10-19T17:46:19.030Z,99598.72
2022-10-19T17:49:22.267Z,99596.00
2022-10-19T17:52:27.247Z,99593.91
2022-10-19T17:55:30.455Z,99603.47
2022-10-19T17:58:39.028Z,99604.63
2022-10-19T18:01:45.937Z,99608.03
2022-10-19T18:04:51.950Z,99614.44
2022-10-19T18:07:56.502Z,99614.00
2022-10-19T18:11:00.596Z,99616.97
2022-10-19T18:14:04.578Z,99612.38
2022-10-19T18:17:07.846Z,99619.28
2022-10-19T18:20:12.317Z,99614.81
2022-10-19T18:23:17.032Z,99622.25
2022-10-19T18:26:22.477Z,99621.16
2022-10-19T18:29:27.331Z,99617.25
2022-10-19T18:32:30.501Z,99620.56
2022-10-19T18:35:36.929Z,99622.16
2022-10-19T18:38:41.586Z,99618.31
2022-10-19T18:41:45.137Z,99617.06
2022-10-19T18:44:48.408Z,99625.22
2022-10-19T18:47:51.681Z,99632.53
2022-10-19T18:50:55.421Z,99630.38
2022-10-19T18:54:00.168Z,99638.56
2022-10-19T18:57:03.447Z,99647.66
2022-10-19T19:00:07.764Z,99639.63
2022-10-19T19:03:11.485Z,99637.84
2022-10-19T19:06:16.517Z,99639.19
2022-10-19T19:09:21.310Z,99644.13
2022-10-19T19:12:24.757Z,99651.78
2022-10-19T19:15:28.077Z,99647.72
2022-10-19T19:18:33.735Z,99651.16
2022-10-19T19:21:38.376Z,99659.97
2022-10-19T19:24:44.932Z,99667.44
2022-10-19T19:27:48.173Z,99667.16
2022-10-19T19:30:51.422Z,99674.84
2022-10-19T19:33:54.994Z,99679.47
2022-10-19T19:36:58.205Z,99682.03
2022-10-19T19:40:02.910Z,99686.22
2022-10-19T19:43:06.095Z,99692.84
2022-10-19T19:46:12.762Z,99687.00
2022-10-19T19:49:19.005Z,99684.38
2022-10-19T19:52:22.227Z,99682.13
2022-10-19T19:55:27.260Z,99685.53
2022-10-19T19:58:30.770Z,99687.91
2022-10-19T20:01:34.504Z,99683.94
2022-10-19T20:04:37.982Z,99683.72
2022-10-19T20:07:41.190Z,99687.00
2022-10-19T20:10:45.767Z,99694.75
2022-10-19T20:13:49.026Z,99695.50
2022-10-19T20:16:52.264Z,99691.94
2022-10-19T20:19:55.451Z,99705.53
2022-10-19T20:22:58.661Z,99698.66
2022-10-19T20:26:03.491Z,99706.00
2022-10-19T20:29:06.772Z,99698.81
2022-10-19T20:32:10.003Z,99707.03
2022-10-19T20:35:13.251Z,99719.03
2022-10-19T20:38:16.438Z,99714.09
2022-10-19T20:41:24.711Z,99718.13
2022-10-19T20:44:27.883Z,99718.03
2022-10-19T20:47:31.109Z,99712.19
2022-10-19T20:50:34.431Z,99710.88
2022-10-19T20:53:37.689Z,99717.75
2022-10-19T20:56:43.601Z,99710.75
2022-10-19T20:59:46.820Z,99722.56
2022-10-19T21:02:50.042Z,99723.41
2022-10-19T21:05:53.235Z,99727.03
2022-10-19T21:08:57.724Z,99730.06
2022-10-19T21:12:03.362Z,99730.84
2022-10-19T21:15:07.094Z,99725.47
2022-10-19T21:18:10.289Z,99731.47
2022-10-19T21:21:18.389Z,99733.69
2022-10-19T21:24:23.424Z,99740.66
2022-10-19T21:27:28.083Z,99741.69
2022-10-19T21:30:31.268Z,99741.31
2022-10-19T21:33:34.566Z,99742.22
2022-10-19T21:36:37.766Z,99735.31
2022-10-19T21:39:40.922Z,99739.31
2022-10-19T21:42:45.944Z,99747.88
2022-10-19T21:45:49.147Z,99743.44
2022-10-19T21:48:53.185Z,99740.69
2022-10-19T21:51:56.476Z,99744.63
2022-10-19T21:54:59.662Z,99743.19
2022-10-19T21:58:04.714Z,99750.91
2022-10-19T22:01:08.878Z,99752.16
2022-10-19T22:04:14.891Z,99747.75
2022-10-19T22:07:18.077Z,99748.13
2022-10-19T22:10:21.295Z,99755.56
2022-10-19T22:13:25.986Z,99756.06
2022-10-19T22:16:30.371Z,99762.78
2022-10-19T22:19:33.611Z,99764.25
2022-10-19T22:22:36.980Z,99760.31
2022-10-19T22:25:40.426Z,99768.16
2022-10-19T22:28:45.252Z,99765.28
2022-10-19T22:31:48.357Z,99770.09
2022-10-19T22:34:51.401Z,99768.97
2022-10-19T22:37:54.477Z,99765.78
2022-10-19T22:40:57.501Z,99769.41
2022-10-19T22:44:02.123Z,99772.00
2022-10-19T22:47:05.178Z,99776.53
2022-10-19T22:50:11.870Z,99780.97
2022-10-19T22:53:15.122Z,99777.06
2022-10-19T22:56:18.160Z,99780.78
2022-10-19T22:59:22.558Z,99778.72
2022-10-19T23:02:25.647Z,99779.06
2022-10-19T23:05:28.654Z,99776.63
2022-10-19T23:08:31.792Z,99779.34
2022-10-19T23:11:34.858Z,99781.25
2022-10-19T23:14:39.294Z,99777.78
2022-10-19T23:17:42.310Z,99778.03
2022-10-19T23:20:54.527Z,99782.16
2022-10-19T23:23:57.587Z,99786.56
2022-10-19T23:27:00.704Z,99781.56
2022-10-19T23:30:06.126Z,99777.78
2022-10-19T23:33:09.166Z,99785.66
2022-10-19T23:36:15.182Z,99789.22
2022-10-19T23:39:19.375Z,99787.25
2022-10-19T23:42:22.426Z,99787.72
2022-10-19T23:45:26.938Z,99785.63
2022-10-19T23:48:30.229Z,99793.81
2022-10-19T23:51:33.342Z,99795.53
2022-10-19T23:54:36.379Z,99796.53
2022-10-19T23:57:39.467Z,99797.38
